Archival Weather

South Haven Area Rgnl

South Haven, Michigan (KLWA)

Report from: Tuesday, September 19, 2023 11:55 AM EDT
Current time: Saturday, July 13, 2024 8:44 PM EDT

Current weather – Weather history – Daily summaries
Weather forecast

Temperature17.2°C (63.0°F)
Dew point12.6°C (54.7°F)
Winds 5 kts (2.6 m/s, 5.8 mph) South (180°)
Visibility10 mi. (16.1 km)
Clouds Ceiling: Overcast 8,500 ft. (2,591 m)
Altimeter30.08 in.Hg (1019 mB)
Relative humidity74 %
Density altitude282 ft. (86 m)
Remarks Fully automated report
Automated weather observing station with precipitation discriminator
Flight conditions Visual Meteorological Conditions
Raw dataKLWA 191555Z AUTO 18005KT 10SM OVC085 17/13 A3008 RMK AO2 T01720126
An error has occurred. This application may no longer respond until reloaded. Reload 🗙